Wolf 59 — CGBP — position and weather

sailwx.info

Track history (hours):
 
Tides and Currents Weather Stations Pressure Air Temp Water Temp Dewpoint Dewpoint Depression Visibility Wind Speed Wind Dir Waves Ship Positions

Wolf 59

Last reported at 2017-Oct-19 15:00 UTC. Time now 2017-Oct-19 15:11 UTC.
Position N 48°54' W 123°26'.

Length 33 m; draft 2.6 m.

Type: Military. MMSI: 316011515.

Date/timePositionNaut miles runAvg speedWind from/ knotsBaromVisibWave heightAir tempDewpointWater temp
2017-Oct-19 15:00N 48°54' W 123°26'0 0.0
2017-Oct-19 14:30N 48°54' W 123°26'0 0.0
2017-Oct-19 13:58N 48°54' W 123°26'0 0.0
2017-Oct-19 13:29N 48°54' W 123°26'0 0.0
2017-Oct-19 12:58N 48°54' W 123°26'0 0.0
2017-Oct-19 12:30N 48°54' W 123°26'0 0.0
2017-Oct-19 11:59N 48°54' W 123°26'0 0.0
2017-Oct-19 11:29N 48°54' W 123°26'0 0.0
2017-Oct-19 11:00N 48°54' W 123°26'0 0.0
2017-Oct-19 10:27N 48°54' W 123°26'0 0.0
2017-Oct-19 09:58N 48°54' W 123°26'0 0.0
2017-Oct-19 09:29N 48°54' W 123°26'0 0.0
2017-Oct-19 08:59N 48°54' W 123°26'0 0.0
2017-Oct-19 08:29N 48°54' W 123°26'0 0.0
2017-Oct-19 07:58N 48°54' W 123°26'0 0.0
2017-Oct-19 07:25N 48°54' W 123°26'0 0.0
2017-Oct-19 06:59N 48°54' W 123°26'0 0.0
2017-Oct-19 06:27N 48°54' W 123°26'0 0.0
2017-Oct-19 05:59N 48°54' W 123°26'1 1.8
2017-Oct-19 05:30N 48°55' W 123°27'1 2.5
2017-Oct-19 05:00N 48°54' W 123°27'611.2
2017-Oct-19 04:30N 48°49' W 123°23'4 7.1
2017-Oct-19 04:00N 48°45' W 123°24'5 8.5
2017-Oct-19 03:27N 48°41' W 123°21'510.7
2017-Oct-19 03:00N 48°36' W 123°20'2 3.9
2017-Oct-19 02:30N 48°37' W 123°17'10 4.9
2017-Oct-19 00:33N 48°45' W 123°25'0 0.0
2017-Oct-19 00:18N 48°45' W 123°25'0 0.0
2017-Oct-18 23:51N 48°45' W 123°25'0 0.0
2017-Oct-18 23:30N 48°45' W 123°25'0 0.0
2017-Oct-18 21:38N 48°45' W 123°25'0 0.0
2017-Oct-18 21:25N 48°45' W 123°25'3 6.4
2017-Oct-18 21:01N 48°47' W 123°22'612.3
2017-Oct-18 20:30N 48°53' W 123°27'4 7.8
2017-Oct-18 20:00N 48°55' W 123°31'510.4
2017-Oct-18 19:30N 48°59' W 123°37'3 6.1
2017-Oct-18 19:00N 49°01' W 123°39'4 8.2
2017-Oct-18 18:30N 49°05' W 123°42'3 4.9
2017-Oct-18 17:53N 49°02' W 123°41'7 8.4
2017-Oct-18 17:02N 48°57' W 123°34'110.4
2017-Oct-18 16:59N 48°56' W 123°34'5 9.7
2017-Oct-18 16:26N 48°53' W 123°27'3 4.9
2017-Oct-18 15:50N 48°51' W 123°29'1 3.2
2017-Oct-18 15:30N 48°51' W 123°30'0 0.0
2017-Oct-18 14:51N 48°51' W 123°30'0 0.0
2017-Oct-18 13:57N 48°51' W 123°30'0 0.0
2017-Oct-18 13:27N 48°51' W 123°30'0 0.0
2017-Oct-18 12:57N 48°51' W 123°30'0 0.0
2017-Oct-18 12:24N 48°51' W 123°30'0 0.0
2017-Oct-18 12:00N 48°51' W 123°30'0 0.0
2017-Oct-18 11:30N 48°51' W 123°30'0 0.0
2017-Oct-18 11:00N 48°51' W 123°30'0 0.0
2017-Oct-18 10:30N 48°51' W 123°30'0 0.0
2017-Oct-18 10:00N 48°51' W 123°30'0 0.0
2017-Oct-18 09:30N 48°51' W 123°30'0 0.0
2017-Oct-18 09:00N 48°51' W 123°30'0 0.0
2017-Oct-18 08:30N 48°51' W 123°30'0 0.0
2017-Oct-18 08:00N 48°51' W 123°30'0 0.0
2017-Oct-18 07:30N 48°51' W 123°30'0 0.0
2017-Oct-18 07:00N 48°51' W 123°30'0 0.0
2017-Oct-18 06:30N 48°51' W 123°30'0 0.0
2017-Oct-18 06:00N 48°51' W 123°30'0 0.0
2017-Oct-18 05:27N 48°51' W 123°30'0 0.0
2017-Oct-18 05:00N 48°51' W 123°30'0 0.0
2017-Oct-18 04:30N 48°51' W 123°30'0 0.0
2017-Oct-18 03:56N 48°51' W 123°30'0 0.0
2017-Oct-18 03:20N 48°51' W 123°30'0 0.0
2017-Oct-18 02:56N 48°51' W 123°30'0 0.0
2017-Oct-18 02:26N 48°51' W 123°30'0 0.0
2017-Oct-18 01:50N 48°51' W 123°30'0 0.0
2017-Oct-18 01:26N 48°51' W 123°30'0 0.0
2017-Oct-18 00:44N 48°51' W 123°30'0 0.0
2017-Oct-18 00:26N 48°51' W 123°30'0 0.0
2017-Oct-17 23:56N 48°51' W 123°30'0 0.0
2017-Oct-17 23:20N 48°51' W 123°30'0 0.7
2017-Oct-17 23:00N 48°51' W 123°30'4 8.9
2017-Oct-17 22:30N 48°48' W 123°24'11 7.9
2017-Oct-17 21:10N 48°38' W 123°21'212.2
2017-Oct-17 20:58N 48°36' W 123°19'2 3.3
2017-Oct-17 20:25N 48°36' W 123°22'4 9.0
2017-Oct-17 19:58N 48°40' W 123°23'0 0.2
2017-Oct-17 19:27N 48°40' W 123°23'0 0.0
2017-Oct-17 18:56N 48°40' W 123°23'0 0.0
2017-Oct-17 18:27N 48°40' W 123°23'3 1.6
2017-Oct-17 16:42N 48°43' W 123°23'3 2.1
2017-Oct-17 15:19N 48°45' W 123°25'0 0.0
2017-Oct-17 14:52N 48°45' W 123°25'0 0.0
2017-Oct-17 14:17N 48°45' W 123°25'0 0.0
2017-Oct-17 11:40N 48°45' W 123°25'0 0.0
2017-Oct-17 11:21N 48°45' W 123°25'0 0.0
2017-Oct-17 09:50N 48°45' W 123°25'0 0.0
2017-Oct-17 09:30N 48°45' W 123°25'0 0.0
2017-Oct-17 09:00N 48°45' W 123°25'0 0.0
2017-Oct-17 06:34N 48°45' W 123°25'0 0.3
2017-Oct-17 06:25N 48°45' W 123°25'4 5.7
2017-Oct-17 05:43N 48°42' W 123°22'313.6
2017-Oct-17 05:30N 48°41' W 123°17'4 6.7
2017-Oct-17 04:58N 48°44' W 123°21'511.1
2017-Oct-17 04:30N 48°49' W 123°25'5 9.6
2017-Oct-17 04:00N 48°53' W 123°27'1 2.3
2017-Oct-17 03:30N 48°54' W 123°26'5 9.8
2017-Oct-17 03:00N 48°50' W 123°21'3 5.1
2017-Oct-17 02:30N 48°49' W 123°17'3 5.9
2017-Oct-17 02:00N 48°52' W 123°20'2 4.1
2017-Oct-17 01:31N 48°53' W 123°17'4 7.5
2017-Oct-17 01:00N 48°51' W 123°23'2 5.0
2017-Oct-17 00:30N 48°53' W 123°26'4 7.8
2017-Oct-17 00:00N 48°55' W 123°30'4 7.4
2017-Oct-16 23:30N 48°58' W 123°34'3 7.0
2017-Oct-16 23:00N 49°01' W 123°34'611.4
2017-Oct-16 22:29N 49°03' W 123°25'611.4
2017-Oct-16 21:56N 49°09' W 123°23'511.4
2017-Oct-16 21:29N 49°14' W 123°21'611.3
2017-Oct-16 20:59N 49°19' W 123°17'611.2
2017-Oct-16 20:29N 49°19' W 123°08'4 8.5
2017-Oct-16 19:59N 49°18' W 123°02'4 7.8
2017-Oct-16 19:29N 49°19' W 122°56'1 1.8
2017-Oct-16 18:59N 49°20' W 122°56'1 2.0
2017-Oct-16 18:29N 49°20' W 122°55'5 9.4
2017-Oct-16 17:59N 49°25' W 122°52'1 1.6
2017-Oct-16 17:29N 49°25' W 122°52'510.2
2017-Oct-16 16:59N 49°21' W 122°54'3 5.3
2017-Oct-16 16:29N 49°18' W 122°56'1 2.7
2017-Oct-16 15:59N 49°18' W 122°54'5 9.0
2017-Oct-16 15:28N 49°18' W 123°01'3 6.5
2017-Oct-16 14:58N 49°17' W 123°06'0 0.0
2017-Oct-16 14:30N 49°17' W 123°06'0 0.0
2017-Oct-16 13:29N 49°17' W 123°06'0 0.0
2017-Oct-16 12:59N 49°17' W 123°06'0 0.0
2017-Oct-16 12:29N 49°17' W 123°06'0 0.0
2017-Oct-16 11:59N 49°17' W 123°06'0 0.0
2017-Oct-16 11:29N 49°17' W 123°06'0 0.0
2017-Oct-16 10:59N 49°17' W 123°06'0 0.0
2017-Oct-16 10:29N 49°17' W 123°06'0 0.0
2017-Oct-16 09:59N 49°17' W 123°06'0 0.0
2017-Oct-16 09:29N 49°17' W 123°06'0 0.0
2017-Oct-16 08:59N 49°17' W 123°06'0 0.0
2017-Oct-16 08:29N 49°17' W 123°06'0 0.0
2017-Oct-16 07:59N 49°17' W 123°06'0 0.0
2017-Oct-16 07:29N 49°17' W 123°06'0 0.0
2017-Oct-16 06:59N 49°17' W 123°06'0 0.0
2017-Oct-16 06:29N 49°17' W 123°06'0 0.0
2017-Oct-16 05:59N 49°17' W 123°06'0 0.0
2017-Oct-16 05:26N 49°17' W 123°06'0 0.0
2017-Oct-16 04:59N 49°17' W 123°06'0 0.0
2017-Oct-16 04:29N 49°17' W 123°06'0 0.0
2017-Oct-16 03:59N 49°17' W 123°06'0 0.0
2017-Oct-16 03:29N 49°17' W 123°06'0 0.0
2017-Oct-16 02:59N 49°17' W 123°06'0 0.0
2017-Oct-16 02:28N 49°17' W 123°06'0 0.0
2017-Oct-16 01:58N 49°17' W 123°06'0 0.0
2017-Oct-16 01:28N 49°17' W 123°06'0 0.0
2017-Oct-16 00:58N 49°17' W 123°06'0 0.0
2017-Oct-16 00:28N 49°17' W 123°06'0 0.0
2017-Oct-15 23:58N 49°17' W 123°06'0 0.0
2017-Oct-15 23:28N 49°17' W 123°06'0 0.0
2017-Oct-15 22:58N 49°17' W 123°06'0 0.0
2017-Oct-15 22:28N 49°17' W 123°06'0 0.0
2017-Oct-15 21:58N 49°17' W 123°06'0 0.0
2017-Oct-15 21:28N 49°17' W 123°06'0 0.0
2017-Oct-15 20:58N 49°17' W 123°06'0 0.0
2017-Oct-15 20:28N 49°17' W 123°06'0 0.0
2017-Oct-15 19:58N 49°17' W 123°06'0 0.0
2017-Oct-15 19:25N 49°17' W 123°06'0 0.0
2017-Oct-15 18:58N 49°17' W 123°06'0 0.0
2017-Oct-15 18:28N 49°17' W 123°06'0 0.0
2017-Oct-15 17:58N 49°17' W 123°06'0 0.0
2017-Oct-15 17:28N 49°17' W 123°06'0 0.0
2017-Oct-15 16:58N 49°17' W 123°06'0 0.0
2017-Oct-15 16:31N 49°17' W 123°06'0 0.0
2017-Oct-15 16:00N 49°17' W 123°06'0 0.0
2017-Oct-15 15:30N 49°17' W 123°06'0 0.0
2017-Oct-15 15:00N 49°17' W 123°06'0 0.0
2017-Oct-15 14:00N 49°17' W 123°06'0 0.0
2017-Oct-15 13:30N 49°17' W 123°06'0 0.0
2017-Oct-15 13:00N 49°17' W 123°06'0 0.0
2017-Oct-15 12:30N 49°17' W 123°06'0 0.0
2017-Oct-15 12:00N 49°17' W 123°06'0 0.0
2017-Oct-15 11:30N 49°17' W 123°06'0 0.0
2017-Oct-15 11:00N 49°17' W 123°06'0 0.0
2017-Oct-15 10:30N 49°17' W 123°06'0 0.0
2017-Oct-15 10:00N 49°17' W 123°06'0 0.0
2017-Oct-15 09:30N 49°17' W 123°06'0 0.0
2017-Oct-15 09:00N 49°17' W 123°06'0 0.0
2017-Oct-15 08:30N 49°17' W 123°06'0 0.0
2017-Oct-15 08:00N 49°17' W 123°06'0 0.0
2017-Oct-15 07:30N 49°17' W 123°06'0 0.0
2017-Oct-15 07:00N 49°17' W 123°06'0 0.0
2017-Oct-15 06:30N 49°17' W 123°06'0 0.0
2017-Oct-15 06:00N 49°17' W 123°06'0 0.0
2017-Oct-15 05:30N 49°17' W 123°06'0 0.0
2017-Oct-15 05:00N 49°17' W 123°06'0 0.0
2017-Oct-15 04:29N 49°17' W 123°06'0 0.0
2017-Oct-15 03:59N 49°17' W 123°06'0 0.0
2017-Oct-15 03:29N 49°17' W 123°06'0 0.0
2017-Oct-15 02:59N 49°17' W 123°06'0 0.0
2017-Oct-15 02:29N 49°17' W 123°06'0 0.0
2017-Oct-15 01:59N 49°17' W 123°06'0 0.0
2017-Oct-15 01:29N 49°17' W 123°06'0 0.0
2017-Oct-15 00:59N 49°17' W 123°06'0 0.0
2017-Oct-15 00:29N 49°17' W 123°06'0 0.0
2017-Oct-14 23:59N 49°17' W 123°06'0 0.0
2017-Oct-14 23:29N 49°17' W 123°06'0 0.0
2017-Oct-14 22:59N 49°17' W 123°06'0 0.0
2017-Oct-14 22:29N 49°17' W 123°06'0 0.0
2017-Oct-14 21:59N 49°17' W 123°06'0 0.0
2017-Oct-14 21:29N 49°17' W 123°06'0 0.0
2017-Oct-14 20:59N 49°17' W 123°06'0 0.0
2017-Oct-14 20:29N 49°17' W 123°06'0 0.0
2017-Oct-14 19:59N 49°17' W 123°06'0 0.0
2017-Oct-14 19:29N 49°17' W 123°06'0 0.0
2017-Oct-14 18:59N 49°17' W 123°06'0 0.0
2017-Oct-14 18:28N 49°17' W 123°06'0 0.0
2017-Oct-14 17:58N 49°17' W 123°06'0 0.0
2017-Oct-14 17:28N 49°17' W 123°06'0 0.0
2017-Oct-14 16:58N 49°17' W 123°06'0 0.0
2017-Oct-14 16:28N 49°17' W 123°06'0 0.0
2017-Oct-14 15:58N 49°17' W 123°06'0 0.0
2017-Oct-14 15:28N 49°17' W 123°06'0 0.0
2017-Oct-14 14:58N 49°17' W 123°06'0 0.0
2017-Oct-14 14:28N 49°17' W 123°06'0 0.0
2017-Oct-14 13:58N 49°17' W 123°06'0 0.0
2017-Oct-14 13:28N 49°17' W 123°06'0 0.0
2017-Oct-14 12:58N 49°17' W 123°06'0 0.0
2017-Oct-14 12:28N 49°17' W 123°06'0 0.0
2017-Oct-14 11:58N 49°17' W 123°06'0 0.0
2017-Oct-14 11:28N 49°17' W 123°06'0 0.0
2017-Oct-14 10:58N 49°17' W 123°06'0 0.0
2017-Oct-14 10:28N 49°17' W 123°06'0 0.0
2017-Oct-14 09:58N 49°17' W 123°06'0 0.0
2017-Oct-14 09:28N 49°17' W 123°06'0 0.0
2017-Oct-14 08:58N 49°17' W 123°06'0 0.0
2017-Oct-14 08:28N 49°17' W 123°06'0 0.0
2017-Oct-14 08:01N 49°17' W 123°06'0 0.0
2017-Oct-14 07:30N 49°17' W 123°06'0 0.0
2017-Oct-14 07:00N 49°17' W 123°06'0 0.0
2017-Oct-14 06:30N 49°17' W 123°06'0 0.0
2017-Oct-14 06:00N 49°17' W 123°06'0 0.0
2017-Oct-14 05:30N 49°17' W 123°06'0 0.0
2017-Oct-14 05:00N 49°17' W 123°06'0 0.0
2017-Oct-14 04:30N 49°17' W 123°06'0 0.0
2017-Oct-14 04:00N 49°17' W 123°06'0 0.0
2017-Oct-14 03:30N 49°17' W 123°06'0 0.0
2017-Oct-14 02:57N 49°17' W 123°06'0 0.0
2017-Oct-14 02:30N 49°17' W 123°06'0 0.0
2017-Oct-14 02:00N 49°17' W 123°06'0 0.0
2017-Oct-14 01:30N 49°17' W 123°06'0 0.0
2017-Oct-14 01:00N 49°17' W 123°06'0 0.0
2017-Oct-14 00:30N 49°17' W 123°06'0 0.0
2017-Oct-14 00:00N 49°17' W 123°06'0 0.0
2017-Oct-13 23:30N 49°17' W 123°06'0 0.0
2017-Oct-13 23:00N 49°17' W 123°06'0 0.0
2017-Oct-13 22:30N 49°17' W 123°06'0 0.0
2017-Oct-13 22:00N 49°17' W 123°06'1 1.7
2017-Oct-13 21:30N 49°18' W 123°07'0 0.0
2017-Oct-13 21:00N 49°18' W 123°07'0 0.0
2017-Oct-13 20:30N 49°18' W 123°07'0 0.5
2017-Oct-13 20:00N 49°18' W 123°07'1 1.7
2017-Oct-13 19:30N 49°18' W 123°06'1 1.7
2017-Oct-13 19:00N 49°18' W 123°07'3 6.1
2017-Oct-13 18:30N 49°19' W 123°11'4 8.3
2017-Oct-13 18:00N 49°20' W 123°17'3 6.0
2017-Oct-13 17:30N 49°23' W 123°18'3 5.8
2017-Oct-13 17:00N 49°25' W 123°16'5 9.6
2017-Oct-13 16:30N 49°24' W 123°23'5 9.8
2017-Oct-13 16:00N 49°21' W 123°28'3 6.3
2017-Oct-13 15:30N 49°23' W 123°26'510.5
2017-Oct-13 14:59N 49°28' W 123°21'0 0.2
2017-Oct-13 14:29N 49°28' W 123°21'0 0.0
2017-Oct-13 14:00N 49°28' W 123°21'0 0.0
2017-Oct-13 13:30N 49°28' W 123°21'0 0.0
2017-Oct-13 12:57N 49°28' W 123°21'0 0.0
2017-Oct-13 12:30N 49°28' W 123°21'0 0.0
2017-Oct-13 12:00N 49°28' W 123°21'0 0.0
2017-Oct-13 11:30N 49°28' W 123°21'0 0.0
2017-Oct-13 10:51N 49°28' W 123°21'0 0.1
2017-Oct-13 10:30N 49°28' W 123°21'0 0.0
2017-Oct-13 09:57N 49°28' W 123°21'0 0.0
2017-Oct-13 09:30N 49°28' W 123°21'0 0.0
2017-Oct-13 09:00N 49°28' W 123°21'0 0.0
2017-Oct-13 08:27N 49°28' W 123°21'0 0.0
2017-Oct-13 07:57N 49°28' W 123°21'0 0.0
2017-Oct-13 07:30N 49°28' W 123°21'0 0.0
2017-Oct-13 07:00N 49°28' W 123°21'0 0.0
2017-Oct-13 06:30N 49°28' W 123°21'0 0.0
2017-Oct-13 06:00N 49°28' W 123°21'1 1.8
2017-Oct-13 05:30N 49°27' W 123°22'3 5.2
2017-Oct-13 05:00N 49°27' W 123°18'4 7.8
2017-Oct-13 04:30N 49°31' W 123°17'4 7.8
2017-Oct-13 04:01N 49°35' W 123°18'4 8.4
2017-Oct-13 03:30N 49°30' W 123°18'5 9.2
2017-Oct-13 03:01N 49°26' W 123°18'4 8.8
2017-Oct-13 02:30N 49°23' W 123°24'4 7.6
2017-Oct-13 02:00N 49°21' W 123°29'2 3.4
2017-Oct-13 01:30N 49°20' W 123°26'1 2.0
2017-Oct-13 01:00N 49°20' W 123°25'4 7.2
2017-Oct-13 00:30N 49°17' W 123°28'611.7
2017-Oct-13 00:00N 49°13' W 123°35'5 9.8
2017-Oct-12 23:30N 49°09' W 123°39'1 1.7
2017-Oct-12 22:59N 49°09' W 123°38'1 2.0
2017-Oct-12 22:30N 49°08' W 123°38'510.8
2017-Oct-12 22:00N 49°03' W 123°34'612.1
2017-Oct-12 21:30N 48°58' W 123°29'611.7
2017-Oct-12 21:00N 48°55' W 123°21'4 8.3
2017-Oct-12 20:30N 48°51' W 123°19'5 1.9
2017-Oct-12 18:00N 48°47' W 123°22'5 7.9
2017-Oct-12 17:24N 48°52' W 123°23'410.8
2017-Oct-12 17:00N 48°49' W 123°17'3 5.2
2017-Oct-12 16:21N 48°48' W 123°22'3 9.2
2017-Oct-12 16:00N 48°49' W 123°26'3 6.5
2017-Oct-12 15:30N 48°51' W 123°30'0 0.0
2017-Oct-12 14:52N 48°51' W 123°30'0 0.0
2017-Oct-12 14:28N 48°51' W 123°30'0 0.0
2017-Oct-12 13:52N 48°51' W 123°30'0 0.0
2017-Oct-12 13:22N 48°51' W 123°30'0 0.0
2017-Oct-12 12:58N 48°51' W 123°30'0 0.0
2017-Oct-12 12:28N 48°51' W 123°30'0 0.0
2017-Oct-12 11:51N 48°51' W 123°30'0 0.0
2017-Oct-12 11:30N 48°51' W 123°30'0 0.0
2017-Oct-12 10:33N 48°51' W 123°30'0 0.0
2017-Oct-12 10:27N 48°51' W 123°30'0 0.0
2017-Oct-12 09:21N 48°51' W 123°30'0 0.0
2017-Oct-12 08:51N 48°51' W 123°30'0 0.0
2017-Oct-12 08:27N 48°51' W 123°30'0 0.0
2017-Oct-12 07:57N 48°51' W 123°30'0 0.0
2017-Oct-12 07:21N 48°51' W 123°30'0 0.0
2017-Oct-12 06:57N 48°51' W 123°30'0 0.0
2017-Oct-12 06:27N 48°51' W 123°30'0 0.0
2017-Oct-12 05:51N 48°51' W 123°30'0 0.0
2017-Oct-12 05:15N 48°51' W 123°30'0 0.0
2017-Oct-12 04:57N 48°51' W 123°30'0 0.0
2017-Oct-12 04:21N 48°51' W 123°30'0 0.0
2017-Oct-12 03:57N 48°51' W 123°30'0 0.0
2017-Oct-12 03:09N 48°51' W 123°30'0 0.0
2017-Oct-12 02:57N 48°51' W 123°30'0 0.0
2017-Oct-12 02:27N 48°51' W 123°30'0 0.0
2017-Oct-12 02:00N 48°51' W 123°30'0 0.0
2017-Oct-12 01:30N 48°51' W 123°30'0 0.0
2017-Oct-12 01:00N 48°51' W 123°30'0 0.0
2017-Oct-12 00:15N 48°51' W 123°30'0 0.0
2017-Oct-11 23:38N 48°51' W 123°30'0 0.3
2017-Oct-11 23:30N 48°51' W 123°30'4 7.2
2017-Oct-11 23:00N 48°49' W 123°25'5 9.7
2017-Oct-11 22:26N 48°44' W 123°24'511.4
2017-Oct-11 22:00N 48°40' W 123°30'2 3.9
2017-Oct-11 21:30N 48°39' W 123°27'0 1.0
2017-Oct-11 21:00N 48°39' W 123°28'611.7
2017-Oct-11 20:30N 48°44' W 123°33'5 9.5
2017-Oct-11 20:00N 48°49' W 123°34'612.8
2017-Oct-11 19:30N 48°54' W 123°39'713.2
2017-Oct-11 19:00N 48°59' W 123°46'1 2.6
2017-Oct-11 18:30N 48°59' W 123°48'0 0.9
2017-Oct-11 18:00N 48°59' W 123°47'713.6
2017-Oct-11 17:30N 48°55' W 123°39'3 7.1
2017-Oct-11 17:00N 48°56' W 123°34'18 1.1
2017-Oct-10 23:58N 48°41' W 123°20'1 1.6
2017-Oct-10 23:30N 48°42' W 123°21'510.3
2017-Oct-10 23:00N 48°37' W 123°17'4 7.8
2017-Oct-10 22:30N 48°33' W 123°18'2 4.9
2017-Oct-10 22:00N 48°31' W 123°19'510.4
2017-Oct-10 21:31N 48°26' W 123°16'5 9.4
2017-Oct-10 21:00N 48°24' W 123°22'4 4.1
2017-Oct-10 19:58N 48°26' W 123°27'0 0.1
2017-Oct-10 18:52N 48°26' W 123°27'0 0.0
2017-Oct-10 18:25N 48°26' W 123°27'0 0.2
2017-Oct-10 18:00N 48°26' W 123°27'0 0.2
2017-Oct-10 17:30N 48°26' W 123°27'0 0.0
2017-Oct-10 16:59N 48°26' W 123°27'0 0.0
2017-Oct-10 16:30N 48°26' W 123°27'0 0.0
2017-Oct-10 16:00N 48°26' W 123°27'0 0.0
2017-Oct-09 17:25N 48°26' W 123°27'0 0.9
2017-Oct-09 17:00N 48°26' W 123°27'4 7.4
2017-Oct-09 16:30N 48°22' W 123°27'0 0.6
2017-Oct-09 16:00N 48°23' W 123°27'4 7.2
2017-Oct-09 15:31N 48°26' W 123°26'  
Track history (hours):
 
Tides and Currents Weather Stations Pressure Air Temp Water Temp Dewpoint Dewpoint Depression Visibility Wind Speed Wind Dir Waves Ship Positions

Wolf 59

Last reported at 2017-Oct-19 15:00 UTC. Time now 2017-Oct-19 15:11 UTC.
Position N 48°54' W 123°26'.

Length 33 m; draft 2.6 m.

Type: Military. MMSI: 316011515.

Date/timePositionNaut miles runAvg speedWind from/ knotsBaromVisibWave heightAir tempDewpointWater temp
2017-Oct-19 15:00N 48°54' W 123°26'0 0.0
2017-Oct-19 14:30N 48°54' W 123°26'0 0.0
2017-Oct-19 13:58N 48°54' W 123°26'0 0.0
2017-Oct-19 13:29N 48°54' W 123°26'0 0.0
2017-Oct-19 12:58N 48°54' W 123°26'0 0.0
2017-Oct-19 12:30N 48°54' W 123°26'0 0.0
2017-Oct-19 11:59N 48°54' W 123°26'0 0.0
2017-Oct-19 11:29N 48°54' W 123°26'0 0.0
2017-Oct-19 11:00N 48°54' W 123°26'0 0.0
2017-Oct-19 10:27N 48°54' W 123°26'0 0.0
2017-Oct-19 09:58N 48°54' W 123°26'0 0.0
2017-Oct-19 09:29N 48°54' W 123°26'0 0.0
2017-Oct-19 08:59N 48°54' W 123°26'0 0.0
2017-Oct-19 08:29N 48°54' W 123°26'0 0.0
2017-Oct-19 07:58N 48°54' W 123°26'0 0.0
2017-Oct-19 07:25N 48°54' W 123°26'0 0.0
2017-Oct-19 06:59N 48°54' W 123°26'0 0.0
2017-Oct-19 06:27N 48°54' W 123°26'0 0.0
2017-Oct-19 05:59N 48°54' W 123°26'1 1.8
2017-Oct-19 05:30N 48°55' W 123°27'1 2.5
2017-Oct-19 05:00N 48°54' W 123°27'611.2
2017-Oct-19 04:30N 48°49' W 123°23'4 7.1
2017-Oct-19 04:00N 48°45' W 123°24'5 8.5
2017-Oct-19 03:27N 48°41' W 123°21'510.7
2017-Oct-19 03:00N 48°36' W 123°20'2 3.9
2017-Oct-19 02:30N 48°37' W 123°17'10 4.9
2017-Oct-19 00:33N 48°45' W 123°25'0 0.0
2017-Oct-19 00:18N 48°45' W 123°25'0 0.0
2017-Oct-18 23:51N 48°45' W 123°25'0 0.0
2017-Oct-18 23:30N 48°45' W 123°25'0 0.0
2017-Oct-18 21:38N 48°45' W 123°25'0 0.0
2017-Oct-18 21:25N 48°45' W 123°25'3 6.4
2017-Oct-18 21:01N 48°47' W 123°22'612.3
2017-Oct-18 20:30N 48°53' W 123°27'4 7.8
2017-Oct-18 20:00N 48°55' W 123°31'510.4
2017-Oct-18 19:30N 48°59' W 123°37'3 6.1
2017-Oct-18 19:00N 49°01' W 123°39'4 8.2
2017-Oct-18 18:30N 49°05' W 123°42'3 4.9
2017-Oct-18 17:53N 49°02' W 123°41'7 8.4
2017-Oct-18 17:02N 48°57' W 123°34'110.4
2017-Oct-18 16:59N 48°56' W 123°34'5 9.7
2017-Oct-18 16:26N 48°53' W 123°27'3 4.9
2017-Oct-18 15:50N 48°51' W 123°29'1 3.2
2017-Oct-18 15:30N 48°51' W 123°30'0 0.0
2017-Oct-18 14:51N 48°51' W 123°30'0 0.0
2017-Oct-18 13:57N 48°51' W 123°30'0 0.0
2017-Oct-18 13:27N 48°51' W 123°30'0 0.0
2017-Oct-18 12:57N 48°51' W 123°30'0 0.0
2017-Oct-18 12:24N 48°51' W 123°30'0 0.0
2017-Oct-18 12:00N 48°51' W 123°30'0 0.0
2017-Oct-18 11:30N 48°51' W 123°30'0 0.0
2017-Oct-18 11:00N 48°51' W 123°30'0 0.0
2017-Oct-18 10:30N 48°51' W 123°30'0 0.0
2017-Oct-18 10:00N 48°51' W 123°30'0 0.0
2017-Oct-18 09:30N 48°51' W 123°30'0 0.0
2017-Oct-18 09:00N 48°51' W 123°30'0 0.0
2017-Oct-18 08:30N 48°51' W 123°30'0 0.0
2017-Oct-18 08:00N 48°51' W 123°30'0 0.0
2017-Oct-18 07:30N 48°51' W 123°30'0 0.0
2017-Oct-18 07:00N 48°51' W 123°30'0 0.0
2017-Oct-18 06:30N 48°51' W 123°30'0 0.0
2017-Oct-18 06:00N 48°51' W 123°30'0 0.0
2017-Oct-18 05:27N 48°51' W 123°30'0 0.0
2017-Oct-18 05:00N 48°51' W 123°30'0 0.0
2017-Oct-18 04:30N 48°51' W 123°30'0 0.0
2017-Oct-18 03:56N 48°51' W 123°30'0 0.0
2017-Oct-18 03:20N 48°51' W 123°30'0 0.0
2017-Oct-18 02:56N 48°51' W 123°30'0 0.0
2017-Oct-18 02:26N 48°51' W 123°30'0 0.0
2017-Oct-18 01:50N 48°51' W 123°30'0 0.0
2017-Oct-18 01:26N 48°51' W 123°30'0 0.0
2017-Oct-18 00:44N 48°51' W 123°30'0 0.0
2017-Oct-18 00:26N 48°51' W 123°30'0 0.0
2017-Oct-17 23:56N 48°51' W 123°30'0 0.0
2017-Oct-17 23:20N 48°51' W 123°30'0 0.7
2017-Oct-17 23:00N 48°51' W 123°30'4 8.9
2017-Oct-17 22:30N 48°48' W 123°24'11 7.9
2017-Oct-17 21:10N 48°38' W 123°21'212.2
2017-Oct-17 20:58N 48°36' W 123°19'2 3.3
2017-Oct-17 20:25N 48°36' W 123°22'4 9.0
2017-Oct-17 19:58N 48°40' W 123°23'0 0.2
2017-Oct-17 19:27N 48°40' W 123°23'0 0.0
2017-Oct-17 18:56N 48°40' W 123°23'0 0.0
2017-Oct-17 18:27N 48°40' W 123°23'3 1.6
2017-Oct-17 16:42N 48°43' W 123°23'3 2.1
2017-Oct-17 15:19N 48°45' W 123°25'0 0.0
2017-Oct-17 14:52N 48°45' W 123°25'0 0.0
2017-Oct-17 14:17N 48°45' W 123°25'0 0.0
2017-Oct-17 11:40N 48°45' W 123°25'0 0.0
2017-Oct-17 11:21N 48°45' W 123°25'0 0.0
2017-Oct-17 09:50N 48°45' W 123°25'0 0.0
2017-Oct-17 09:30N 48°45' W 123°25'0 0.0
2017-Oct-17 09:00N 48°45' W 123°25'0 0.0
2017-Oct-17 06:34N 48°45' W 123°25'0 0.3
2017-Oct-17 06:25N 48°45' W 123°25'4 5.7
2017-Oct-17 05:43N 48°42' W 123°22'313.6
2017-Oct-17 05:30N 48°41' W 123°17'4 6.7
2017-Oct-17 04:58N 48°44' W 123°21'511.1
2017-Oct-17 04:30N 48°49' W 123°25'5 9.6
2017-Oct-17 04:00N 48°53' W 123°27'1 2.3
2017-Oct-17 03:30N 48°54' W 123°26'5 9.8
2017-Oct-17 03:00N 48°50' W 123°21'3 5.1
2017-Oct-17 02:30N 48°49' W 123°17'3 5.9
2017-Oct-17 02:00N 48°52' W 123°20'2 4.1
2017-Oct-17 01:31N 48°53' W 123°17'4 7.5
2017-Oct-17 01:00N 48°51' W 123°23'2 5.0
2017-Oct-17 00:30N 48°53' W 123°26'4 7.8
2017-Oct-17 00:00N 48°55' W 123°30'4 7.4
2017-Oct-16 23:30N 48°58' W 123°34'3 7.0
2017-Oct-16 23:00N 49°01' W 123°34'611.4
2017-Oct-16 22:29N 49°03' W 123°25'611.4
2017-Oct-16 21:56N 49°09' W 123°23'511.4
2017-Oct-16 21:29N 49°14' W 123°21'611.3
2017-Oct-16 20:59N 49°19' W 123°17'611.2
2017-Oct-16 20:29N 49°19' W 123°08'4 8.5
2017-Oct-16 19:59N 49°18' W 123°02'4 7.8
2017-Oct-16 19:29N 49°19' W 122°56'1 1.8
2017-Oct-16 18:59N 49°20' W 122°56'1 2.0
2017-Oct-16 18:29N 49°20' W 122°55'5 9.4
2017-Oct-16 17:59N 49°25' W 122°52'1 1.6
2017-Oct-16 17:29N 49°25' W 122°52'510.2
2017-Oct-16 16:59N 49°21' W 122°54'3 5.3
2017-Oct-16 16:29N 49°18' W 122°56'1 2.7
2017-Oct-16 15:59N 49°18' W 122°54'5 9.0
2017-Oct-16 15:28N 49°18' W 123°01'3 6.5
2017-Oct-16 14:58N 49°17' W 123°06'0 0.0
2017-Oct-16 14:30N 49°17' W 123°06'0 0.0
2017-Oct-16 13:29N 49°17' W 123°06'0 0.0
2017-Oct-16 12:59N 49°17' W 123°06'0 0.0
2017-Oct-16 12:29N 49°17' W 123°06'0 0.0
2017-Oct-16 11:59N 49°17' W 123°06'0 0.0
2017-Oct-16 11:29N 49°17' W 123°06'0 0.0
2017-Oct-16 10:59N 49°17' W 123°06'0 0.0
2017-Oct-16 10:29N 49°17' W 123°06'0 0.0
2017-Oct-16 09:59N 49°17' W 123°06'0 0.0
2017-Oct-16 09:29N 49°17' W 123°06'0 0.0
2017-Oct-16 08:59N 49°17' W 123°06'0 0.0
2017-Oct-16 08:29N 49°17' W 123°06'0 0.0
2017-Oct-16 07:59N 49°17' W 123°06'0 0.0
2017-Oct-16 07:29N 49°17' W 123°06'0 0.0
2017-Oct-16 06:59N 49°17' W 123°06'0 0.0
2017-Oct-16 06:29N 49°17' W 123°06'0 0.0
2017-Oct-16 05:59N 49°17' W 123°06'0 0.0
2017-Oct-16 05:26N 49°17' W 123°06'0 0.0
2017-Oct-16 04:59N 49°17' W 123°06'0 0.0
2017-Oct-16 04:29N 49°17' W 123°06'0 0.0
2017-Oct-16 03:59N 49°17' W 123°06'0 0.0
2017-Oct-16 03:29N 49°17' W 123°06'0 0.0
2017-Oct-16 02:59N 49°17' W 123°06'0 0.0
2017-Oct-16 02:28N 49°17' W 123°06'0 0.0
2017-Oct-16 01:58N 49°17' W 123°06'0 0.0
2017-Oct-16 01:28N 49°17' W 123°06'0 0.0
2017-Oct-16 00:58N 49°17' W 123°06'0 0.0
2017-Oct-16 00:28N 49°17' W 123°06'0 0.0
2017-Oct-15 23:58N 49°17' W 123°06'0 0.0
2017-Oct-15 23:28N 49°17' W 123°06'0 0.0
2017-Oct-15 22:58N 49°17' W 123°06'0 0.0
2017-Oct-15 22:28N 49°17' W 123°06'0 0.0
2017-Oct-15 21:58N 49°17' W 123°06'0 0.0
2017-Oct-15 21:28N 49°17' W 123°06'0 0.0
2017-Oct-15 20:58N 49°17' W 123°06'0 0.0
2017-Oct-15 20:28N 49°17' W 123°06'0 0.0
2017-Oct-15 19:58N 49°17' W 123°06'0 0.0
2017-Oct-15 19:25N 49°17' W 123°06'0 0.0
2017-Oct-15 18:58N 49°17' W 123°06'0 0.0
2017-Oct-15 18:28N 49°17' W 123°06'0 0.0
2017-Oct-15 17:58N 49°17' W 123°06'0 0.0
2017-Oct-15 17:28N 49°17' W 123°06'0 0.0
2017-Oct-15 16:58N 49°17' W 123°06'0 0.0
2017-Oct-15 16:31N 49°17' W 123°06'0 0.0
2017-Oct-15 16:00N 49°17' W 123°06'0 0.0
2017-Oct-15 15:30N 49°17' W 123°06'0 0.0
2017-Oct-15 15:00N 49°17' W 123°06'0 0.0
2017-Oct-15 14:00N 49°17' W 123°06'0 0.0
2017-Oct-15 13:30N 49°17' W 123°06'0 0.0
2017-Oct-15 13:00N 49°17' W 123°06'0 0.0
2017-Oct-15 12:30N 49°17' W 123°06'0 0.0
2017-Oct-15 12:00N 49°17' W 123°06'0 0.0
2017-Oct-15 11:30N 49°17' W 123°06'0 0.0
2017-Oct-15 11:00N 49°17' W 123°06'0 0.0
2017-Oct-15 10:30N 49°17' W 123°06'0 0.0
2017-Oct-15 10:00N 49°17' W 123°06'0 0.0
2017-Oct-15 09:30N 49°17' W 123°06'0 0.0
2017-Oct-15 09:00N 49°17' W 123°06'0 0.0
2017-Oct-15 08:30N 49°17' W 123°06'0 0.0
2017-Oct-15 08:00N 49°17' W 123°06'0 0.0
2017-Oct-15 07:30N 49°17' W 123°06'0 0.0
2017-Oct-15 07:00N 49°17' W 123°06'0 0.0
2017-Oct-15 06:30N 49°17' W 123°06'0 0.0
2017-Oct-15 06:00N 49°17' W 123°06'0 0.0
2017-Oct-15 05:30N 49°17' W 123°06'0 0.0
2017-Oct-15 05:00N 49°17' W 123°06'0 0.0
2017-Oct-15 04:29N 49°17' W 123°06'0 0.0
2017-Oct-15 03:59N 49°17' W 123°06'0 0.0
2017-Oct-15 03:29N 49°17' W 123°06'0 0.0
2017-Oct-15 02:59N 49°17' W 123°06'0 0.0
2017-Oct-15 02:29N 49°17' W 123°06'0 0.0
2017-Oct-15 01:59N 49°17' W 123°06'0 0.0
2017-Oct-15 01:29N 49°17' W 123°06'0 0.0
2017-Oct-15 00:59N 49°17' W 123°06'0 0.0
2017-Oct-15 00:29N 49°17' W 123°06'0 0.0
2017-Oct-14 23:59N 49°17' W 123°06'0 0.0
2017-Oct-14 23:29N 49°17' W 123°06'0 0.0
2017-Oct-14 22:59N 49°17' W 123°06'0 0.0
2017-Oct-14 22:29N 49°17' W 123°06'0 0.0
2017-Oct-14 21:59N 49°17' W 123°06'0 0.0
2017-Oct-14 21:29N 49°17' W 123°06'0 0.0
2017-Oct-14 20:59N 49°17' W 123°06'0 0.0
2017-Oct-14 20:29N 49°17' W 123°06'0 0.0
2017-Oct-14 19:59N 49°17' W 123°06'0 0.0
2017-Oct-14 19:29N 49°17' W 123°06'0 0.0
2017-Oct-14 18:59N 49°17' W 123°06'0 0.0
2017-Oct-14 18:28N 49°17' W 123°06'0 0.0
2017-Oct-14 17:58N 49°17' W 123°06'0 0.0
2017-Oct-14 17:28N 49°17' W 123°06'0 0.0
2017-Oct-14 16:58N 49°17' W 123°06'0 0.0
2017-Oct-14 16:28N 49°17' W 123°06'0 0.0
2017-Oct-14 15:58N 49°17' W 123°06'0 0.0
2017-Oct-14 15:28N 49°17' W 123°06'0 0.0
2017-Oct-14 14:58N 49°17' W 123°06'0 0.0
2017-Oct-14 14:28N 49°17' W 123°06'0 0.0
2017-Oct-14 13:58N 49°17' W 123°06'0 0.0
2017-Oct-14 13:28N 49°17' W 123°06'0 0.0
2017-Oct-14 12:58N 49°17' W 123°06'0 0.0
2017-Oct-14 12:28N 49°17' W 123°06'0 0.0
2017-Oct-14 11:58N 49°17' W 123°06'0 0.0
2017-Oct-14 11:28N 49°17' W 123°06'0 0.0
2017-Oct-14 10:58N 49°17' W 123°06'0 0.0
2017-Oct-14 10:28N 49°17' W 123°06'0 0.0
2017-Oct-14 09:58N 49°17' W 123°06'0 0.0
2017-Oct-14 09:28N 49°17' W 123°06'0 0.0
2017-Oct-14 08:58N 49°17' W 123°06'0 0.0
2017-Oct-14 08:28N 49°17' W 123°06'0 0.0
2017-Oct-14 08:01N 49°17' W 123°06'0 0.0
2017-Oct-14 07:30N 49°17' W 123°06'0 0.0
2017-Oct-14 07:00N 49°17' W 123°06'0 0.0
2017-Oct-14 06:30N 49°17' W 123°06'0 0.0
2017-Oct-14 06:00N 49°17' W 123°06'0 0.0
2017-Oct-14 05:30N 49°17' W 123°06'0 0.0
2017-Oct-14 05:00N 49°17' W 123°06'0 0.0
2017-Oct-14 04:30N 49°17' W 123°06'0 0.0
2017-Oct-14 04:00N 49°17' W 123°06'0 0.0
2017-Oct-14 03:30N 49°17' W 123°06'0 0.0
2017-Oct-14 02:57N 49°17' W 123°06'0 0.0
2017-Oct-14 02:30N 49°17' W 123°06'0 0.0
2017-Oct-14 02:00N 49°17' W 123°06'0 0.0
2017-Oct-14 01:30N 49°17' W 123°06'0 0.0
2017-Oct-14 01:00N 49°17' W 123°06'0 0.0
2017-Oct-14 00:30N 49°17' W 123°06'0 0.0
2017-Oct-14 00:00N 49°17' W 123°06'0 0.0
2017-Oct-13 23:30N 49°17' W 123°06'0 0.0
2017-Oct-13 23:00N 49°17' W 123°06'0 0.0
2017-Oct-13 22:30N 49°17' W 123°06'0 0.0
2017-Oct-13 22:00N 49°17' W 123°06'1 1.7
2017-Oct-13 21:30N 49°18' W 123°07'0 0.0
2017-Oct-13 21:00N 49°18' W 123°07'0 0.0
2017-Oct-13 20:30N 49°18' W 123°07'0 0.5
2017-Oct-13 20:00N 49°18' W 123°07'1 1.7
2017-Oct-13 19:30N 49°18' W 123°06'1 1.7
2017-Oct-13 19:00N 49°18' W 123°07'3 6.1
2017-Oct-13 18:30N 49°19' W 123°11'4 8.3
2017-Oct-13 18:00N 49°20' W 123°17'3 6.0
2017-Oct-13 17:30N 49°23' W 123°18'3 5.8
2017-Oct-13 17:00N 49°25' W 123°16'5 9.6
2017-Oct-13 16:30N 49°24' W 123°23'5 9.8
2017-Oct-13 16:00N 49°21' W 123°28'3 6.3
2017-Oct-13 15:30N 49°23' W 123°26'510.5
2017-Oct-13 14:59N 49°28' W 123°21'0 0.2
2017-Oct-13 14:29N 49°28' W 123°21'0 0.0
2017-Oct-13 14:00N 49°28' W 123°21'0 0.0
2017-Oct-13 13:30N 49°28' W 123°21'0 0.0
2017-Oct-13 12:57N 49°28' W 123°21'0 0.0
2017-Oct-13 12:30N 49°28' W 123°21'0 0.0
2017-Oct-13 12:00N 49°28' W 123°21'0 0.0
2017-Oct-13 11:30N 49°28' W 123°21'0 0.0
2017-Oct-13 10:51N 49°28' W 123°21'0 0.1
2017-Oct-13 10:30N 49°28' W 123°21'0 0.0
2017-Oct-13 09:57N 49°28' W 123°21'0 0.0
2017-Oct-13 09:30N 49°28' W 123°21'0 0.0
2017-Oct-13 09:00N 49°28' W 123°21'0 0.0
2017-Oct-13 08:27N 49°28' W 123°21'0 0.0
2017-Oct-13 07:57N 49°28' W 123°21'0 0.0
2017-Oct-13 07:30N 49°28' W 123°21'0 0.0
2017-Oct-13 07:00N 49°28' W 123°21'0 0.0
2017-Oct-13 06:30N 49°28' W 123°21'0 0.0
2017-Oct-13 06:00N 49°28' W 123°21'1 1.8
2017-Oct-13 05:30N 49°27' W 123°22'3 5.2
2017-Oct-13 05:00N 49°27' W 123°18'4 7.8
2017-Oct-13 04:30N 49°31' W 123°17'4 7.8
2017-Oct-13 04:01N 49°35' W 123°18'4 8.4
2017-Oct-13 03:30N 49°30' W 123°18'5 9.2
2017-Oct-13 03:01N 49°26' W 123°18'4 8.8
2017-Oct-13 02:30N 49°23' W 123°24'4 7.6
2017-Oct-13 02:00N 49°21' W 123°29'2 3.4
2017-Oct-13 01:30N 49°20' W 123°26'1 2.0
2017-Oct-13 01:00N 49°20' W 123°25'4 7.2
2017-Oct-13 00:30N 49°17' W 123°28'611.7
2017-Oct-13 00:00N 49°13' W 123°35'5 9.8
2017-Oct-12 23:30N 49°09' W 123°39'1 1.7
2017-Oct-12 22:59N 49°09' W 123°38'1 2.0
2017-Oct-12 22:30N 49°08' W 123°38'510.8
2017-Oct-12 22:00N 49°03' W 123°34'612.1
2017-Oct-12 21:30N 48°58' W 123°29'611.7
2017-Oct-12 21:00N 48°55' W 123°21'4 8.3
2017-Oct-12 20:30N 48°51' W 123°19'5 1.9
2017-Oct-12 18:00N 48°47' W 123°22'5 7.9
2017-Oct-12 17:24N 48°52' W 123°23'410.8
2017-Oct-12 17:00N 48°49' W 123°17'3 5.2
2017-Oct-12 16:21N 48°48' W 123°22'3 9.2
2017-Oct-12 16:00N 48°49' W 123°26'3 6.5
2017-Oct-12 15:30N 48°51' W 123°30'0 0.0
2017-Oct-12 14:52N 48°51' W 123°30'0 0.0
2017-Oct-12 14:28N 48°51' W 123°30'0 0.0
2017-Oct-12 13:52N 48°51' W 123°30'0 0.0
2017-Oct-12 13:22N 48°51' W 123°30'0 0.0
2017-Oct-12 12:58N 48°51' W 123°30'0 0.0
2017-Oct-12 12:28N 48°51' W 123°30'0 0.0
2017-Oct-12 11:51N 48°51' W 123°30'0 0.0
2017-Oct-12 11:30N 48°51' W 123°30'0 0.0
2017-Oct-12 10:33N 48°51' W 123°30'0 0.0
2017-Oct-12 10:27N 48°51' W 123°30'0 0.0
2017-Oct-12 09:21N 48°51' W 123°30'0 0.0
2017-Oct-12 08:51N 48°51' W 123°30'0 0.0
2017-Oct-12 08:27N 48°51' W 123°30'0 0.0
2017-Oct-12 07:57N 48°51' W 123°30'0 0.0
2017-Oct-12 07:21N 48°51' W 123°30'0 0.0
2017-Oct-12 06:57N 48°51' W 123°30'0 0.0
2017-Oct-12 06:27N 48°51' W 123°30'0 0.0
2017-Oct-12 05:51N 48°51' W 123°30'0 0.0
2017-Oct-12 05:15N 48°51' W 123°30'0 0.0
2017-Oct-12 04:57N 48°51' W 123°30'0 0.0
2017-Oct-12 04:21N 48°51' W 123°30'0 0.0
2017-Oct-12 03:57N 48°51' W 123°30'0 0.0
2017-Oct-12 03:09N 48°51' W 123°30'0 0.0
2017-Oct-12 02:57N 48°51' W 123°30'0 0.0
2017-Oct-12 02:27N 48°51' W 123°30'0 0.0
2017-Oct-12 02:00N 48°51' W 123°30'0 0.0
2017-Oct-12 01:30N 48°51' W 123°30'0 0.0
2017-Oct-12 01:00N 48°51' W 123°30'0 0.0
2017-Oct-12 00:15N 48°51' W 123°30'0 0.0
2017-Oct-11 23:38N 48°51' W 123°30'0 0.3
2017-Oct-11 23:30N 48°51' W 123°30'4 7.2
2017-Oct-11 23:00N 48°49' W 123°25'5 9.7
2017-Oct-11 22:26N 48°44' W 123°24'511.4
2017-Oct-11 22:00N 48°40' W 123°30'2 3.9
2017-Oct-11 21:30N 48°39' W 123°27'0 1.0
2017-Oct-11 21:00N 48°39' W 123°28'611.7
2017-Oct-11 20:30N 48°44' W 123°33'5 9.5
2017-Oct-11 20:00N 48°49' W 123°34'612.8
2017-Oct-11 19:30N 48°54' W 123°39'713.2
2017-Oct-11 19:00N 48°59' W 123°46'1 2.6
2017-Oct-11 18:30N 48°59' W 123°48'0 0.9
2017-Oct-11 18:00N 48°59' W 123°47'713.6
2017-Oct-11 17:30N 48°55' W 123°39'3 7.1
2017-Oct-11 17:00N 48°56' W 123°34'18 1.1
2017-Oct-10 23:58N 48°41' W 123°20'1 1.6
2017-Oct-10 23:30N 48°42' W 123°21'510.3
2017-Oct-10 23:00N 48°37' W 123°17'4 7.8
2017-Oct-10 22:30N 48°33' W 123°18'2 4.9
2017-Oct-10 22:00N 48°31' W 123°19'510.4
2017-Oct-10 21:31N 48°26' W 123°16'5 9.4
2017-Oct-10 21:00N 48°24' W 123°22'4 4.1
2017-Oct-10 19:58N 48°26' W 123°27'0 0.1
2017-Oct-10 18:52N 48°26' W 123°27'0 0.0
2017-Oct-10 18:25N 48°26' W 123°27'0 0.2
2017-Oct-10 18:00N 48°26' W 123°27'0 0.2
2017-Oct-10 17:30N 48°26' W 123°27'0 0.0
2017-Oct-10 16:59N 48°26' W 123°27'0 0.0
2017-Oct-10 16:30N 48°26' W 123°27'0 0.0
2017-Oct-10 16:00N 48°26' W 123°27'0 0.0
2017-Oct-09 17:25N 48°26' W 123°27'0 0.9
2017-Oct-09 17:00N 48°26' W 123°27'4 7.4
2017-Oct-09 16:30N 48°22' W 123°27'0 0.6
2017-Oct-09 16:00N 48°23' W 123°27'4 7.2
2017-Oct-09 15:31N 48°26' W 123°26'  

Dump ship's entire track history